createdAt,value
2018-07-26T00:10:25.847Z,3.10
2018-07-26T00:13:13.561Z,3.50
2018-07-26T00:18:53.380Z,3.20
2018-07-26T00:21:23.106Z,3.20
2018-07-26T00:23:52.573Z,2.83
2018-07-26T00:38:45.836Z,3.80
2018-07-26T00:41:15.513Z,3.17
2018-07-26T00:46:23.373Z,3.53
2018-07-26T01:26:23.606Z,3.10
2018-07-26T01:34:56.219Z,3.17
2018-07-26T01:37:26.665Z,3.10
2018-07-26T01:39:56.150Z,3.03
2018-07-26T01:42:28.039Z,3.13
2018-07-26T01:44:58.226Z,3.33
2018-07-26T01:47:37.710Z,3.07
2018-07-26T01:50:18.937Z,2.90
2018-07-26T01:52:48.165Z,3.27
2018-07-26T01:55:29.662Z,3.00
2018-07-26T01:57:58.998Z,2.90
2018-07-26T02:00:28.338Z,3.00
2018-07-26T02:02:57.903Z,2.80
2018-07-26T02:05:27.392Z,2.70
2018-07-26T02:07:56.607Z,3.07
2018-07-26T02:10:26.725Z,2.80
2018-07-26T02:12:56.945Z,3.23
2018-07-26T02:15:26.440Z,3.07
2018-07-26T02:17:55.924Z,2.80
2018-07-26T02:20:25.416Z,2.77
2018-07-26T02:22:54.899Z,3.07
2018-07-26T02:25:24.957Z,2.80
2018-07-26T02:27:54.483Z,2.80
2018-07-26T02:30:46.726Z,2.80
2018-07-26T02:33:16.290Z,3.00
2018-07-26T02:35:45.542Z,3.00
2018-07-26T02:38:15.092Z,2.80
2018-07-26T02:40:44.330Z,2.63
2018-07-26T02:43:13.842Z,2.70
2018-07-26T02:45:43.383Z,2.73
2018-07-26T03:00:05.537Z,2.93
2018-07-26T03:02:35.036Z,2.70
2018-07-26T03:05:05.122Z,2.63
2018-07-26T03:07:35.304Z,2.53
2018-07-26T03:10:09.435Z,2.80
2018-07-26T03:15:48.008Z,2.57
2018-07-26T03:18:17.478Z,2.50
2018-07-26T03:20:47.515Z,2.70
2018-07-26T03:23:17.201Z,2.87
2018-07-26T03:26:05.181Z,2.50
2018-07-26T03:28:35.203Z,2.60
2018-07-26T03:31:05.126Z,2.60
2018-07-26T03:33:34.469Z,2.50
2018-07-26T03:36:06.707Z,2.77
2018-07-26T03:38:37.037Z,2.30
2018-07-26T03:41:06.507Z,2.67
2018-07-26T03:43:36.613Z,2.30
2018-07-26T03:46:07.072Z,2.30
2018-07-26T03:48:36.882Z,2.43
2018-07-26T03:51:07.388Z,2.37
2018-07-26T03:53:36.882Z,2.50
2018-07-26T03:56:06.348Z,2.53
2018-07-26T03:58:37.362Z,2.63
2018-07-26T04:01:07.078Z,2.43
2018-07-26T04:03:36.711Z,2.50
2018-07-26T04:06:26.215Z,2.40
2018-07-26T04:08:56.406Z,2.20
2018-07-26T04:11:27.298Z,3.17
2018-07-26T04:13:58.222Z,2.27
2018-07-26T04:17:17.709Z,2.40
2018-07-26T04:19:46.945Z,2.27
2018-07-26T04:22:36.766Z,2.40
2018-07-26T04:34:10.401Z,2.30
2018-07-26T04:36:40.823Z,2.40
2018-07-26T04:39:11.405Z,2.30
2018-07-26T04:41:40.637Z,2.43
2018-07-26T04:44:11.204Z,2.37
2018-07-26T04:46:41.365Z,2.60
2018-07-26T04:49:10.960Z,2.47
2018-07-26T04:51:40.982Z,2.47
2018-07-26T04:54:10.311Z,2.53
2018-07-26T04:56:40.227Z,2.10
2018-07-26T04:59:10.898Z,2.20
2018-07-26T05:01:40.514Z,2.50
2018-07-26T05:04:09.791Z,2.20
2018-07-26T05:06:39.300Z,2.13
2018-07-26T05:09:11.554Z,2.50
2018-07-26T05:11:47.026Z,2.20
2018-07-26T05:14:16.156Z,2.30
2018-07-26T05:16:45.461Z,2.67
2018-07-26T05:19:15.558Z,2.47
2018-07-26T05:21:45.597Z,2.37
2018-07-26T05:24:15.179Z,2.60
2018-07-26T05:26:44.416Z,2.30
2018-07-26T05:29:13.673Z,2.13
2018-07-26T05:31:42.930Z,2.30
2018-07-26T05:34:13.062Z,2.20
2018-07-26T05:36:43.520Z,1.73
2018-07-26T05:39:13.204Z,2.30
2018-07-26T05:41:50.209Z,2.30
2018-07-26T05:44:19.898Z,2.37
2018-07-26T05:46:49.570Z,2.83
2018-07-26T05:49:18.842Z,2.47
2018-07-26T05:51:49.599Z,2.40
2018-07-26T05:54:18.874Z,2.43
2018-07-26T05:56:48.435Z,2.20
2018-07-26T05:59:18.008Z,1.77
2018-07-26T06:01:48.045Z,1.87
2018-07-26T06:04:17.541Z,2.27
2018-07-26T06:06:46.783Z,2.20
2018-07-26T06:09:16.051Z,1.97
2018-07-26T06:11:45.963Z,2.30
2018-07-26T06:14:16.928Z,2.10
2018-07-26T06:16:46.611Z,2.03
2018-07-26T06:19:16.418Z,2.13
2018-07-26T06:27:17.078Z,2.20
2018-07-26T06:29:46.859Z,2.37
2018-07-26T06:32:16.318Z,2.20
2018-07-26T06:34:46.228Z,2.20
2018-07-26T06:37:15.677Z,2.27
2018-07-26T06:39:44.928Z,2.40
2018-07-26T06:42:14.375Z,2.40
2018-07-26T06:44:43.650Z,2.23
2018-07-26T06:47:13.522Z,2.13
2018-07-26T06:49:43.924Z,2.50
2018-07-26T06:52:14.010Z,2.30
2018-07-26T06:54:43.879Z,2.30
2018-07-26T06:57:13.109Z,2.37
2018-07-26T06:59:44.775Z,2.50
2018-07-26T07:02:15.022Z,2.30
2018-07-26T07:04:45.146Z,2.70
2018-07-26T07:07:19.834Z,1.80
2018-07-26T07:09:51.706Z,2.30
2018-07-26T07:12:34.210Z,2.60
2018-07-26T07:18:19.423Z,2.37
2018-07-26T07:20:49.560Z,2.70
2018-07-26T07:23:19.583Z,2.40
2018-07-26T07:25:49.192Z,3.23
2018-07-26T07:28:29.806Z,2.80
2018-07-26T07:30:59.498Z,3.13
2018-07-26T07:33:29.397Z,2.90
2018-07-26T07:35:59.030Z,2.93
2018-07-26T07:38:28.974Z,2.80
2018-07-26T07:40:58.247Z,3.20
2018-07-26T07:43:27.854Z,2.70
2018-07-26T07:45:57.119Z,2.70
2018-07-26T07:48:27.620Z,2.57
2018-07-26T07:50:57.022Z,3.10
2018-07-26T07:53:28.177Z,3.03
2018-07-26T07:55:58.837Z,2.67
2018-07-26T07:58:47.683Z,2.53
2018-07-26T08:01:18.792Z,3.30
2018-07-26T08:03:48.836Z,2.90
2018-07-26T08:06:18.717Z,2.77
2018-07-26T08:08:48.042Z,3.10
2018-07-26T08:11:18.710Z,2.90
2018-07-26T08:13:48.351Z,2.87
2018-07-26T08:16:17.854Z,2.90
2018-07-26T08:18:52.338Z,3.30
2018-07-26T08:21:22.356Z,3.97
2018-07-26T08:23:53.303Z,3.10
2018-07-26T08:26:22.578Z,3.40
2018-07-26T08:28:52.104Z,3.20
2018-07-26T08:31:22.041Z,3.13
2018-07-26T08:33:52.254Z,3.40
2018-07-26T08:36:23.122Z,3.73
2018-07-26T08:39:06.926Z,3.80
2018-07-26T08:41:36.938Z,3.50
2018-07-26T08:44:06.736Z,3.73
2018-07-26T08:46:36.691Z,3.47
2018-07-26T08:49:06.050Z,3.60
2018-07-26T08:51:35.630Z,3.20
2018-07-26T08:54:05.356Z,3.40
2018-07-26T08:56:35.371Z,3.60
2018-07-26T08:59:15.367Z,3.87
2018-07-26T09:01:45.132Z,3.77
2018-07-26T09:04:14.400Z,3.40
2018-07-26T09:06:47.903Z,3.23
2018-07-26T09:09:24.176Z,3.10
2018-07-26T09:11:54.494Z,3.73
2018-07-26T09:14:24.608Z,3.50
2018-07-26T09:16:56.189Z,3.80
2018-07-26T09:19:27.600Z,3.30
2018-07-26T09:25:07.768Z,3.57
2018-07-26T09:27:39.325Z,3.83
2018-07-26T09:30:14.566Z,3.53
2018-07-26T09:32:50.901Z,5.33
2018-07-26T09:35:21.122Z,9.23
2018-07-26T09:37:57.164Z,6.20
2018-07-26T09:40:31.438Z,5.10
2018-07-26T09:43:01.464Z,5.27
2018-07-26T09:45:54.116Z,4.13
2018-07-26T09:48:23.655Z,4.00
2018-07-26T10:12:51.021Z,2.60
2018-07-26T10:15:20.955Z,2.80
2018-07-26T10:17:59.715Z,2.80
2018-07-26T10:29:58.150Z,2.60
2018-07-26T10:32:46.682Z,2.50
2018-07-26T10:35:34.351Z,2.40
2018-07-26T10:38:24.815Z,2.87
2018-07-26T10:47:11.878Z,2.57
2018-07-26T10:49:51.354Z,2.23
2018-07-26T11:05:11.995Z,2.50
2018-07-26T11:20:21.082Z,2.87
2018-07-26T11:22:51.228Z,2.27
2018-07-26T11:25:21.275Z,2.20
2018-07-26T11:27:50.718Z,3.10
2018-07-26T11:30:20.586Z,2.27
2018-07-26T11:32:51.967Z,2.30
2018-07-26T11:35:21.802Z,2.37
2018-07-26T11:37:55.225Z,2.43
2018-07-26T11:40:25.190Z,2.13
2018-07-26T11:42:54.656Z,2.63
2018-07-26T11:45:23.987Z,2.10
2018-07-26T11:47:56.790Z,1.90
2018-07-26T11:50:26.381Z,2.40
2018-07-26T11:52:57.379Z,2.13
2018-07-26T11:55:29.272Z,2.30
2018-07-26T11:58:06.734Z,2.10
2018-07-26T12:00:35.988Z,2.03
2018-07-26T12:03:05.287Z,2.30
2018-07-26T12:05:35.480Z,2.20
2018-07-26T12:08:09.814Z,2.10
2018-07-26T12:10:39.102Z,2.10
2018-07-26T12:13:08.459Z,2.07
2018-07-26T12:15:37.718Z,2.40
2018-07-26T12:18:09.683Z,2.37
2018-07-26T12:20:39.270Z,2.50
2018-07-26T12:23:08.649Z,2.43
2018-07-26T12:25:38.147Z,2.20
2018-07-26T12:28:09.813Z,2.30
2018-07-26T12:30:39.307Z,2.10
2018-07-26T12:33:16.566Z,2.60
2018-07-26T12:35:46.835Z,2.20
2018-07-26T12:38:20.663Z,2.80
2018-07-26T12:40:50.613Z,2.50
2018-07-26T12:43:20.901Z,2.60
2018-07-26T12:45:51.530Z,2.70
2018-07-26T12:48:36.101Z,2.80
2018-07-26T12:51:05.742Z,2.50
2018-07-26T12:53:36.496Z,2.30
2018-07-26T12:56:07.355Z,2.80
2018-07-26T12:58:39.310Z,2.70
2018-07-26T13:01:09.644Z,2.10
2018-07-26T13:03:40.225Z,2.23
2018-07-26T13:06:11.834Z,2.37
2018-07-26T13:08:53.792Z,2.37
2018-07-26T13:11:23.570Z,2.10
2018-07-26T13:13:53.658Z,2.37
2018-07-26T13:16:24.562Z,2.10
2018-07-26T13:19:14.704Z,2.00
2018-07-26T13:21:46.742Z,2.17
2018-07-26T13:24:16.966Z,2.70
2018-07-26T13:26:49.027Z,1.90
2018-07-26T13:29:22.726Z,2.53
2018-07-26T13:31:54.838Z,1.63
2018-07-26T13:34:25.090Z,2.40
2018-07-26T13:36:54.961Z,2.30
2018-07-26T13:39:25.706Z,2.10
2018-07-26T13:41:56.349Z,1.93
2018-07-26T13:44:26.411Z,1.90
2018-07-26T13:46:57.496Z,2.10
2018-07-26T13:49:32.314Z,2.07
2018-07-26T13:52:01.661Z,2.07
2018-07-26T13:54:31.577Z,1.93
2018-07-26T13:57:01.717Z,2.10
2018-07-26T13:59:34.351Z,2.17
2018-07-26T14:02:05.538Z,2.20
2018-07-26T14:04:37.683Z,2.60
2018-07-26T14:07:09.554Z,2.10
2018-07-26T14:09:41.638Z,1.77
2018-07-26T14:12:13.567Z,2.20
2018-07-26T14:14:43.486Z,2.37
2018-07-26T14:17:14.950Z,3.00
2018-07-26T14:19:54.196Z,2.23
2018-07-26T14:22:28.310Z,2.67
2018-07-26T14:25:00.311Z,2.77
2018-07-26T14:27:31.517Z,2.43
2018-07-26T14:30:08.806Z,2.53
2018-07-26T14:32:39.330Z,2.70
2018-07-26T14:35:08.953Z,2.37
2018-07-26T14:37:38.697Z,2.20
2018-07-26T14:40:08.958Z,2.53
2018-07-26T14:42:38.749Z,2.50
2018-07-26T14:45:08.831Z,2.70
2018-07-26T14:47:39.540Z,3.00
2018-07-26T14:50:09.205Z,2.70
2018-07-26T14:52:39.003Z,3.07
2018-07-26T14:55:23.841Z,2.77
2018-07-26T14:57:56.130Z,2.37
2018-07-26T15:00:28.520Z,2.60
2018-07-26T15:02:59.627Z,2.30
2018-07-26T15:05:43.294Z,2.53
2018-07-26T15:08:14.396Z,2.37
2018-07-26T15:10:46.048Z,2.63
2018-07-26T15:13:16.554Z,2.33
2018-07-26T15:15:48.631Z,2.37
2018-07-26T15:18:20.740Z,2.20
2018-07-26T15:20:52.410Z,2.30
2018-07-26T15:23:24.123Z,3.03
2018-07-26T15:25:57.081Z,2.70
2018-07-26T15:28:27.405Z,2.20
2018-07-26T15:30:57.950Z,2.43
2018-07-26T15:33:30.069Z,2.30
2018-07-26T15:36:02.020Z,2.00
2018-07-26T15:38:33.267Z,2.90
2018-07-26T15:41:04.486Z,2.47
2018-07-26T15:43:34.226Z,3.13
2018-07-26T15:46:06.001Z,2.20
2018-07-26T15:48:37.035Z,2.20
2018-07-26T15:51:10.058Z,2.10
2018-07-26T15:53:39.754Z,1.90
2018-07-26T15:56:10.729Z,2.50
2018-07-26T15:58:42.751Z,2.40
2018-07-26T16:01:12.778Z,2.40
2018-07-26T16:03:42.038Z,1.93
2018-07-26T16:06:13.254Z,2.20
2018-07-26T16:08:45.597Z,2.20
2018-07-26T16:11:15.150Z,2.10
2018-07-26T16:13:46.219Z,2.00
2018-07-26T16:16:17.967Z,2.17
2018-07-26T16:18:47.834Z,2.23
2018-07-26T16:21:18.386Z,1.90
2018-07-26T16:23:48.925Z,2.40
2018-07-26T16:26:29.077Z,1.90
2018-07-26T16:28:58.757Z,2.27
2018-07-26T16:31:29.263Z,2.07
2018-07-26T16:34:00.701Z,1.90
2018-07-26T16:36:32.884Z,2.17
2018-07-26T16:39:04.833Z,1.77
2018-07-26T16:41:34.783Z,1.80
2018-07-26T16:44:06.022Z,2.00
2018-07-26T16:46:39.526Z,1.97
2018-07-26T16:49:11.724Z,1.87
2018-07-26T16:51:42.818Z,1.90
2018-07-26T16:54:14.334Z,2.03
2018-07-26T16:56:43.943Z,1.80
2018-07-26T16:59:16.157Z,1.77
2018-07-26T17:01:48.195Z,2.07
2018-07-26T17:04:19.111Z,1.93
2018-07-26T17:06:51.380Z,1.83
2018-07-26T17:09:24.052Z,2.07
2018-07-26T17:11:55.722Z,2.10
2018-07-26T17:14:25.344Z,2.07
2018-07-26T17:16:56.750Z,1.90
2018-07-26T17:19:27.621Z,2.10
2018-07-26T17:21:59.237Z,1.97
2018-07-26T17:24:29.950Z,1.80
2018-07-26T17:27:00.946Z,1.80
2018-07-26T17:29:32.191Z,2.10
2018-07-26T17:32:03.031Z,1.90
2018-07-26T17:34:35.240Z,2.00
2018-07-26T17:37:08.092Z,1.93
2018-07-26T17:39:38.242Z,1.60
2018-07-26T17:42:09.103Z,1.80
2018-07-26T17:44:40.194Z,1.80
2018-07-26T17:47:13.923Z,2.07
2018-07-26T17:49:47.249Z,1.80
2018-07-26T17:52:20.345Z,1.83
2018-07-26T17:54:51.833Z,1.90
2018-07-26T17:57:22.264Z,2.00
2018-07-26T17:59:52.177Z,2.13
2018-07-26T18:02:22.493Z,2.00
2018-07-26T18:04:52.170Z,1.90
2018-07-26T18:07:29.282Z,1.97
2018-07-26T18:10:00.879Z,1.83
2018-07-26T18:12:32.696Z,2.17
2018-07-26T18:15:02.353Z,2.13
2018-07-26T18:17:43.973Z,2.00
2018-07-26T18:20:13.882Z,2.07
2018-07-26T18:22:44.753Z,2.20
2018-07-26T18:25:16.314Z,2.17
2018-07-26T18:27:48.883Z,2.07
2018-07-26T18:30:19.552Z,1.90
2018-07-26T18:32:50.325Z,1.93
2018-07-26T18:35:21.615Z,1.70
2018-07-26T18:37:53.313Z,2.00
2018-07-26T18:40:24.461Z,2.00
2018-07-26T18:42:56.566Z,1.97
2018-07-26T18:45:27.770Z,2.03
2018-07-26T18:47:59.414Z,1.80
2018-07-26T18:50:31.268Z,1.70
2018-07-26T18:53:07.333Z,2.00
2018-07-26T18:55:39.194Z,2.20
2018-07-26T18:58:08.978Z,1.80
2018-07-26T19:00:41.162Z,1.77
2018-07-26T19:03:11.592Z,2.10
2018-07-26T19:05:42.806Z,2.00
2018-07-26T19:08:14.869Z,1.90
2018-07-26T19:10:45.208Z,1.80
2018-07-26T19:13:15.933Z,1.90
2018-07-26T19:15:47.440Z,1.93
2018-07-26T19:18:22.849Z,2.23
2018-07-26T19:20:54.533Z,2.10
2018-07-26T19:23:24.272Z,1.90
2018-07-26T19:25:54.837Z,3.00
2018-07-26T19:28:25.487Z,2.33
2018-07-26T19:30:55.488Z,2.53
2018-07-26T19:33:28.579Z,2.20
2018-07-26T19:36:00.024Z,2.90
2018-07-26T19:38:33.004Z,2.60
2018-07-26T19:41:03.750Z,2.20
2018-07-26T19:43:34.238Z,2.43
2018-07-26T19:46:05.277Z,2.63
2018-07-26T19:48:42.701Z,2.70
2018-07-26T19:51:13.102Z,2.83
2018-07-26T19:53:44.296Z,3.00
2018-07-26T19:56:17.071Z,2.30
2018-07-26T19:58:53.511Z,2.90
2018-07-26T20:01:23.123Z,2.77
2018-07-26T20:03:54.780Z,2.80
2018-07-26T20:06:26.766Z,2.83
2018-07-26T20:09:00.953Z,3.00
2018-07-26T20:11:32.306Z,2.70
2018-07-26T20:14:02.111Z,2.30
2018-07-26T20:16:32.154Z,2.70
2018-07-26T20:19:02.866Z,2.37
2018-07-26T20:21:34.097Z,2.47
2018-07-26T20:24:05.290Z,2.30
2018-07-26T20:26:35.294Z,2.20
2018-07-26T20:29:07.100Z,2.40
2018-07-26T20:31:37.936Z,2.30
2018-07-26T20:34:07.742Z,3.07
2018-07-26T20:36:38.925Z,2.50
2018-07-26T20:39:14.296Z,2.70
2018-07-26T20:41:45.234Z,2.13
2018-07-26T20:44:15.922Z,2.50
2018-07-26T20:46:47.670Z,2.57
2018-07-26T20:49:23.638Z,2.40
2018-07-26T20:51:53.712Z,2.83
2018-07-26T20:54:23.233Z,2.73
2018-07-26T20:56:55.153Z,2.47
2018-07-26T20:59:26.350Z,2.60
2018-07-26T21:01:57.858Z,2.53
2018-07-26T21:04:31.414Z,2.37
2018-07-26T21:07:03.937Z,2.33
2018-07-26T21:09:35.512Z,2.70
2018-07-26T21:12:05.555Z,2.40
2018-07-26T21:14:34.961Z,2.67
2018-07-26T21:17:09.043Z,2.97
2018-07-26T21:19:41.754Z,2.60
2018-07-26T21:22:13.106Z,2.70
2018-07-26T21:24:45.363Z,2.57
2018-07-26T21:27:15.023Z,2.60
2018-07-26T21:29:46.307Z,2.60
2018-07-26T21:32:16.447Z,2.70
2018-07-26T21:34:48.335Z,2.50
2018-07-26T21:37:21.841Z,2.60
2018-07-26T21:39:55.151Z,2.53
2018-07-26T21:42:24.576Z,2.67
2018-07-26T21:44:54.647Z,2.53
2018-07-26T21:47:29.951Z,2.57
2018-07-26T21:52:55.394Z,2.70
2018-07-26T21:55:25.407Z,2.80
2018-07-26T21:57:55.214Z,2.90
2018-07-26T22:00:40.576Z,2.63
2018-07-26T22:03:12.413Z,2.50
2018-07-26T22:05:43.173Z,2.27
2018-07-26T22:08:13.753Z,2.67
2018-07-26T22:10:45.445Z,2.50
2018-07-26T22:13:19.085Z,2.33
2018-07-26T22:15:50.903Z,2.70
2018-07-26T22:18:21.794Z,2.67
2018-07-26T22:20:58.542Z,2.33
2018-07-26T22:23:28.585Z,2.80
2018-07-26T22:25:59.646Z,2.60
2018-07-26T22:28:31.778Z,2.50
2018-07-26T22:31:03.841Z,2.20
2018-07-26T22:33:36.671Z,2.53
2018-07-26T22:36:05.953Z,2.60
2018-07-26T22:38:36.592Z,2.40
2018-07-26T22:41:13.133Z,2.60
2018-07-26T22:43:43.712Z,2.60
2018-07-26T22:46:14.571Z,2.87
2018-07-26T22:48:44.000Z,2.73
2018-07-26T22:51:14.432Z,2.17
2018-07-26T22:53:44.525Z,2.73
2018-07-26T22:56:16.044Z,2.30
2018-07-26T22:58:45.345Z,2.50
2018-07-26T23:01:27.295Z,2.87
2018-07-26T23:03:58.974Z,2.50
2018-07-26T23:06:29.993Z,2.40
2018-07-26T23:09:00.271Z,2.20
2018-07-26T23:11:37.369Z,2.60
2018-07-26T23:14:08.612Z,2.53
2018-07-26T23:16:38.756Z,2.87
2018-07-26T23:19:08.775Z,2.37
2018-07-26T23:21:41.080Z,2.50
2018-07-26T23:24:11.223Z,2.50
2018-07-26T23:26:41.244Z,2.67
2018-07-26T23:29:11.840Z,2.90
2018-07-26T23:31:42.886Z,2.63
2018-07-26T23:34:14.590Z,2.50
2018-07-26T23:36:45.351Z,2.93
2018-07-26T23:39:16.167Z,2.40
2018-07-26T23:41:46.857Z,2.50
2018-07-26T23:44:17.201Z,2.30
2018-07-26T23:46:48.058Z,2.23
2018-07-26T23:49:19.465Z,2.50
2018-07-26T23:51:53.203Z,2.53
2018-07-26T23:54:23.055Z,2.83
2018-07-26T23:56:54.417Z,2.77
2018-07-26T23:59:25.025Z,2.60
